Time;durP1;ratioP1;P1;durP2;ratioP2;P2;SDS_P1;SDS_P2;PMS_P1;PMS_P2;Temp;Humidity;BMP_temperature;BMP_pressure;BME280_temperature;BME280_humidity;BME280_pressure;Samples;Min_cycle;Max_cycle;Signal;HPM_P1;HPM_P2
2021/06/17 00:00:46;;;;;;;20.17;15.52;;;21.50;99.90;;;;;;6172320;23;20174;-74
2021/06/17 00:03:13;;;;;;;15.18;13.35;;;21.50;99.90;;;;;;6171953;23;20572;-75
2021/06/17 00:05:41;;;;;;;12.40;11.00;;;21.40;99.90;;;;;;6172527;23;20202;-74
2021/06/17 00:08:09;;;;;;;14.45;13.02;;;21.40;99.90;;;;;;6173126;23;20251;-75
2021/06/17 00:10:41;;;;;;;13.73;12.30;;;21.40;99.90;;;;;;6171195;23;20209;-74
2021/06/17 00:13:10;;;;;;;12.15;11.02;;;21.30;99.90;;;;;;6171799;23;20170;-77
2021/06/17 00:15:39;;;;;;;13.25;11.85;;;21.30;99.90;;;;;;6172797;23;20186;-74
2021/06/17 00:18:08;;;;;;;14.00;12.80;;;21.30;99.90;;;;;;6172431;23;20205;-75
2021/06/17 00:20:35;;;;;;;13.98;12.57;;;21.30;99.90;;;;;;6172921;23;20178;-75
2021/06/17 00:23:03;;;;;;;12.27;11.05;;;21.30;99.90;;;;;;6170810;23;20170;-75
2021/06/17 00:25:30;;;;;;;10.68;9.65;;;21.20;99.90;;;;;;6172530;23;20178;-74
2021/06/17 00:27:58;;;;;;;15.68;13.63;;;21.20;99.90;;;;;;6173900;23;20233;-76
2021/06/17 00:30:26;;;;;;;12.40;11.20;;;21.20;99.90;;;;;;6172411;23;20171;-74
2021/06/17 00:32:54;;;;;;;11.13;10.00;;;21.20;99.90;;;;;;6174074;23;20181;-74
2021/06/17 00:35:22;;;;;;;11.02;10.00;;;21.20;99.90;;;;;;6173489;23;20178;-75
2021/06/17 00:37:49;;;;;;;10.27;9.38;;;21.10;99.90;;;;;;6172965;23;20670;-75
2021/06/17 00:40:17;;;;;;;16.92;12.50;;;21.10;99.90;;;;;;6173777;23;20179;-77
2021/06/17 00:42:46;;;;;;;13.68;12.40;;;21.10;99.90;;;;;;6174024;23;20176;-77
2021/06/17 00:45:20;;;;;;;12.10;10.93;;;21.10;99.90;;;;;;6173179;23;20526;-76
2021/06/17 00:47:46;;;;;;;11.93;10.75;;;21.10;99.90;;;;;;6173869;23;20166;-80
2021/06/17 00:50:14;;;;;;;12.48;11.18;;;21.10;99.90;;;;;;6174042;23;20556;-79
2021/06/17 00:52:43;;;;;;;9.93;9.02;;;21.10;99.90;;;;;;6173447;23;20178;-75
2021/06/17 00:55:11;;;;;;;12.52;11.23;;;21.00;99.90;;;;;;6174418;23;20209;-75
2021/06/17 00:57:39;;;;;;;10.50;9.23;;;21.00;99.90;;;;;;6174008;23;20190;-75
2021/06/17 01:00:08;;;;;;;11.30;10.20;;;21.00;99.90;;;;;;6174072;23;20178;-77
2021/06/17 01:02:36;;;;;;;14.02;12.70;;;21.00;99.90;;;;;;6174134;23;20197;-77
2021/06/17 01:05:04;;;;;;;14.20;12.73;;;21.00;99.90;;;;;;6173152;23;20950;-78
2021/06/17 01:07:35;;;;;;;13.05;11.70;;;20.90;99.90;;;;;;6173701;23;20186;-77
2021/06/17 01:10:09;;;;;;;11.77;10.57;;;20.90;99.90;;;;;;6173964;23;20178;-76
2021/06/17 01:12:48;;;;;;;10.23;9.18;;;20.90;99.90;;;;;;6173254;23;20257;-78
2021/06/17 01:15:19;;;;;;;12.90;11.60;;;20.90;99.90;;;;;;6173771;23;20190;-79
2021/06/17 01:17:55;;;;;;;11.25;10.15;;;20.90;99.90;;;;;;6174011;23;20215;-73
2021/06/17 01:20:27;;;;;;;10.63;9.55;;;20.90;99.90;;;;;;6173294;23;20175;-75
2021/06/17 01:23:03;;;;;;;10.77;9.45;;;20.90;99.90;;;;;;6173643;23;20170;-76
2021/06/17 01:26:02;;;;;;;11.57;10.38;;;20.90;99.90;;;;;;6174158;23;20163;-75
2021/06/17 01:28:31;;;;;;;10.63;9.63;;;20.90;99.90;;;;;;6173944;23;20198;-75
2021/06/17 01:31:01;;;;;;;13.60;12.27;;;20.90;99.90;;;;;;6174439;23;20178;-78
2021/06/17 01:33:31;;;;;;;13.10;11.80;;;20.90;99.90;;;;;;6174229;23;20265;-75
2021/06/17 01:36:02;;;;;;;11.48;10.32;;;21.00;99.90;;;;;;6174510;23;20181;-79
2021/06/17 01:38:30;;;;;;;13.77;12.48;;;21.00;99.90;;;;;;6174535;23;20187;-80
2021/06/17 01:40:57;;;;;;;12.13;11.02;;;21.00;99.90;;;;;;6173646;23;20247;-80
2021/06/17 01:43:25;;;;;;;10.60;9.68;;;21.00;99.90;;;;;;6173193;23;20282;-79
2021/06/17 01:45:53;;;;;;;15.07;13.65;;;21.00;99.90;;;;;;6175065;23;20178;-77
2021/06/17 01:48:21;;;;;;;11.95;10.73;;;21.00;99.90;;;;;;6175444;23;20174;-80
2021/06/17 01:50:49;;;;;;;12.57;11.45;;;21.00;99.90;;;;;;6175132;23;20167;-76
2021/06/17 01:53:21;;;;;;;15.23;13.65;;;21.00;99.90;;;;;;6176776;23;20175;-78
2021/06/17 01:55:48;;;;;;;13.18;11.98;;;21.00;99.90;;;;;;6176424;23;20174;-74
2021/06/17 01:58:16;;;;;;;15.45;14.02;;;21.10;99.90;;;;;;6177283;23;20213;-79
2021/06/17 02:00:46;;;;;;;14.75;13.35;;;21.10;99.90;;;;;;6184993;23;20181;-75
2021/06/17 02:03:16;;;;;;;18.20;15.18;;;21.10;99.90;;;;;;6186674;23;20163;-78
2021/06/17 02:05:44;;;;;;;17.58;15.77;;;21.10;99.90;;;;;;6186584;23;20302;-75
2021/06/17 02:08:11;;;;;;;21.95;19.40;;;21.10;99.90;;;;;;6181310;23;20169;-75
2021/06/17 02:10:39;;;;;;;19.38;17.30;;;21.10;99.90;;;;;;6187412;23;20170;-74
2021/06/17 02:13:10;;;;;;;17.98;16.20;;;21.20;99.90;;;;;;6177490;23;20881;-75
2021/06/17 02:15:38;;;;;;;16.80;15.10;;;21.20;99.90;;;;;;6173683;23;20182;-78
2021/06/17 02:18:08;;;;;;;19.25;17.25;;;21.20;99.90;;;;;;6174124;23;20208;-79
2021/06/17 02:20:38;;;;;;;16.63;15.02;;;21.20;99.90;;;;;;6173622;23;20166;-76
2021/06/17 02:23:14;;;;;;;16.48;14.90;;;21.20;99.90;;;;;;6172511;23;20259;-74
2021/06/17 02:25:42;;;;;;;15.30;13.80;;;21.20;99.90;;;;;;6173332;23;20185;-74
2021/06/17 02:28:14;;;;;;;14.98;13.48;;;21.20;99.90;;;;;;6172576;23;20203;-74
2021/06/17 02:30:43;;;;;;;17.13;15.32;;;21.20;99.90;;;;;;6174195;23;20171;-74
2021/06/17 02:33:12;;;;;;;16.90;15.25;;;21.20;99.90;;;;;;6173598;23;20179;-74
2021/06/17 02:35:44;;;;;;;18.05;16.00;;;21.20;99.90;;;;;;6173602;23;20189;-74
2021/06/17 02:38:15;;;;;;;16.65;15.00;;;21.20;99.90;;;;;;6173605;23;20191;-73
2021/06/17 02:40:43;;;;;;;18.55;16.60;;;21.30;99.90;;;;;;6173602;23;20217;-74
2021/06/17 02:43:14;;;;;;;19.05;16.55;;;21.30;99.90;;;;;;6172724;23;20584;-73
2021/06/17 02:45:41;;;;;;;17.90;16.30;;;21.30;99.90;;;;;;6173649;23;20737;-73
2021/06/17 02:48:09;;;;;;;17.23;15.52;;;21.30;99.90;;;;;;6173148;23;20182;-76
2021/06/17 02:50:37;;;;;;;14.82;13.32;;;21.30;99.90;;;;;;6173529;23;20182;-74
2021/06/17 02:53:05;;;;;;;17.00;15.25;;;21.20;99.90;;;;;;6172999;23;20177;-74
2021/06/17 02:55:32;;;;;;;17.33;15.63;;;21.20;99.90;;;;;;6173433;23;20178;-75
2021/06/17 02:58:16;;;;;;;19.38;17.52;;;21.20;99.90;;;;;;6171828;23;20198;-75
2021/06/17 03:00:49;;;;;;;17.48;15.77;;;21.10;99.90;;;;;;6173654;23;20167;-74
2021/06/17 03:03:23;;;;;;;17.35;15.57;;;21.10;99.90;;;;;;6173647;23;20167;-74
2021/06/17 03:06:02;;;;;;;19.73;17.80;;;21.10;99.90;;;;;;6172880;23;20206;-74
2021/06/17 03:08:36;;;;;;;17.75;16.00;;;21.10;99.90;;;;;;6174298;23;20162;-78
2021/06/17 03:11:07;;;;;;;15.65;14.23;;;21.00;99.90;;;;;;6172805;23;20162;-74
2021/06/17 03:13:36;;;;;;;18.13;16.42;;;21.00;99.90;;;;;;6173533;23;20174;-79
2021/06/17 03:16:03;;;;;;;19.95;17.88;;;21.00;99.90;;;;;;6173232;23;20727;-78
2021/06/17 03:18:33;;;;;;;18.45;16.75;;;21.00;99.90;;;;;;6173126;23;20458;-79
2021/06/17 03:21:03;;;;;;;20.02;18.02;;;21.00;99.90;;;;;;6173135;23;20225;-74
2021/06/17 03:23:33;;;;;;;19.15;17.35;;;20.90;99.90;;;;;;6173426;23;20175;-76
2021/06/17 03:26:04;;;;;;;18.83;16.95;;;21.00;99.90;;;;;;6172540;23;20544;-73
2021/06/17 03:28:32;;;;;;;18.75;16.95;;;20.90;99.90;;;;;;6172651;23;20206;-77
2021/06/17 03:31:00;;;;;;;19.75;17.83;;;20.90;99.90;;;;;;6173679;23;20170;-75
2021/06/17 03:33:32;;;;;;;20.75;18.75;;;20.90;99.90;;;;;;6172875;23;20174;-76
2021/06/17 03:36:00;;;;;;;26.83;19.27;;;20.90;99.90;;;;;;6172957;23;20178;-74
2021/06/17 03:38:29;;;;;;;18.92;16.83;;;20.90;99.90;;;;;;6172900;23;20194;-75
2021/06/17 03:40:58;;;;;;;18.33;16.45;;;20.90;99.90;;;;;;6172608;23;20195;-78
2021/06/17 03:43:26;;;;;;;21.17;19.10;;;21.00;99.90;;;;;;6173667;23;20303;-80
2021/06/17 03:45:56;;;;;;;21.15;19.15;;;20.90;99.90;;;;;;6173600;23;20179;-78
2021/06/17 03:48:23;;;;;;;18.40;16.48;;;20.90;99.90;;;;;;6172904;23;20174;-75
2021/06/17 03:50:52;;;;;;;18.52;16.70;;;21.00;99.90;;;;;;6173306;23;20185;-77
2021/06/17 03:53:20;;;;;;;22.60;17.67;;;21.00;99.90;;;;;;6173122;23;20185;-79
2021/06/17 03:55:48;;;;;;;15.88;14.38;;;21.00;99.90;;;;;;6171962;23;20167;-79
2021/06/17 03:58:16;;;;;;;16.33;14.73;;;21.00;99.90;;;;;;6173090;23;20205;-79
2021/06/17 04:00:44;;;;;;;16.55;14.85;;;21.10;99.90;;;;;;6171932;23;20170;-77
2021/06/17 04:03:11;;;;;;;15.90;14.25;;;21.10;99.90;;;;;;6173767;23;20182;-76
2021/06/17 04:05:39;;;;;;;16.15;14.52;;;21.10;99.90;;;;;;6174459;23;20194;-75
2021/06/17 04:08:09;;;;;;;17.83;16.05;;;21.20;99.90;;;;;;6174627;23;20181;-76
2021/06/17 04:10:38;;;;;;;21.75;19.40;;;21.20;99.90;;;;;;6174932;23;20784;-77
2021/06/17 04:13:06;;;;;;;28.00;22.20;;;21.30;99.90;;;;;;6174529;23;20173;-77
2021/06/17 04:15:35;;;;;;;31.15;23.55;;;21.40;99.90;;;;;;6173699;23;20190;-78
2021/06/17 04:18:04;;;;;;;29.40;22.90;;;21.40;99.90;;;;;;6175076;23;20202;-75
2021/06/17 04:20:34;;;;;;;24.73;22.02;;;21.50;99.90;;;;;;6174907;23;20182;-75
2021/06/17 04:23:05;;;;;;;20.67;18.35;;;21.60;99.90;;;;;;6173565;23;20736;-74
2021/06/17 04:25:33;;;;;;;20.77;18.25;;;21.70;99.90;;;;;;6175009;23;20177;-74
2021/06/17 04:28:02;;;;;;;21.98;18.35;;;21.70;99.90;;;;;;6174074;23;20182;-79
2021/06/17 04:30:31;;;;;;;20.33;18.17;;;21.80;99.90;;;;;;6114200;23;20183;-78
2021/06/17 04:33:03;;;;;;;20.08;18.05;;;21.90;99.90;;;;;;6115585;23;20550;-74
2021/06/17 04:35:31;;;;;;;19.80;17.77;;;21.90;99.90;;;;;;6114398;23;20794;-74
2021/06/17 04:37:59;;;;;;;16.75;15.05;;;21.90;99.90;;;;;;6114004;23;20283;-74
2021/06/17 04:40:27;;;;;;;19.48;17.55;;;22.00;99.90;;;;;;6114328;23;20180;-74
2021/06/17 04:42:57;;;;;;;18.25;16.30;;;22.00;99.90;;;;;;6113497;23;20161;-75
2021/06/17 04:45:26;;;;;;;18.73;16.73;;;22.10;99.90;;;;;;6114150;23;20172;-75
2021/06/17 04:47:54;;;;;;;16.17;14.48;;;22.10;99.90;;;;;;6114404;23;20176;-75
2021/06/17 04:50:23;;;;;;;15.80;14.30;;;22.20;99.90;;;;;;6113601;23;20186;-75
2021/06/17 04:53:15;;;;;;;18.13;15.57;;;22.40;99.90;;;;;;6114524;23;20493;-77
2021/06/17 04:55:48;;;;;;;17.80;15.90;;;22.70;99.90;;;;;;6093881;23;20183;-76
2021/06/17 04:58:15;;;;;;;15.98;14.48;;;23.00;99.90;;;;;;6113858;23;20192;-76
2021/06/17 05:00:41;;;;;;;16.30;14.80;;;23.30;99.90;;;;;;6114573;23;20172;-79
2021/06/17 05:03:32;;;;;;;15.45;13.85;;;23.60;99.90;;;;;;6114037;23;20679;-76
2021/06/17 05:06:02;;;;;;;14.63;13.32;;;23.90;99.90;;;;;;6113759;23;20195;-75
2021/06/17 05:11:14;;;;;;;14.68;13.15;;;24.50;99.90;;;;;;6113580;23;20852;-74
2021/06/17 05:13:43;;;;;;;13.40;12.10;;;24.90;99.90;;;;;;6113923;23;20569;-75
2021/06/17 05:16:09;;;;;;;12.77;11.57;;;25.20;99.90;;;;;;6114241;23;20239;-75
2021/06/17 05:18:36;;;;;;;13.55;12.23;;;25.50;99.90;;;;;;6113725;23;20196;-75
2021/06/17 05:21:05;;;;;;;12.43;11.20;;;25.70;99.90;;;;;;6114138;23;20188;-75
2021/06/17 05:23:32;;;;;;;14.50;12.10;;;26.00;99.90;;;;;;6114264;23;20172;-75
2021/06/17 05:25:59;;;;;;;13.95;11.93;;;26.30;99.90;;;;;;6113243;23;20180;-75
2021/06/17 05:28:27;;;;;;;12.25;11.15;;;26.50;99.90;;;;;;6122760;23;20236;-75
2021/06/17 05:30:56;;;;;;;13.15;11.75;;;26.70;99.90;;;;;;6173332;23;20167;-75
2021/06/17 05:33:23;;;;;;;14.43;13.18;;;26.90;99.90;;;;;;6172717;23;20167;-74
2021/06/17 05:35:50;;;;;;;11.15;10.10;;;27.00;99.90;;;;;;6173277;23;20185;-74
2021/06/17 05:38:19;;;;;;;12.18;11.05;;;27.20;99.90;;;;;;6173845;23;20209;-74
2021/06/17 05:40:47;;;;;;;10.95;9.85;;;27.40;99.90;;;;;;6173039;23;20194;-76
2021/06/17 05:43:14;;;;;;;11.02;9.93;;;27.60;99.90;;;;;;6171725;23;20584;-79
2021/06/17 05:45:43;;;;;;;18.17;12.20;;;27.70;99.90;;;;;;6173317;23;20175;-74
2021/06/17 05:48:10;;;;;;;12.98;10.88;;;27.90;99.90;;;;;;6172579;23;20174;-75
2021/06/17 05:50:37;;;;;;;13.25;9.65;;;28.00;99.90;;;;;;6173130;23;20177;-74
2021/06/17 05:53:04;;;;;;;13.70;10.50;;;28.30;99.90;;;;;;6172620;23;20190;-73
2021/06/17 05:55:33;;;;;;;13.32;10.05;;;28.50;99.90;;;;;;6173798;23;20589;-76
2021/06/17 05:58:00;;;;;;;14.27;10.02;;;28.70;99.90;;;;;;6172483;23;20167;-74
2021/06/17 06:00:27;;;;;;;11.82;10.00;;;29.00;99.90;;;;;;6172879;23;20171;-75
2021/06/17 06:02:54;;;;;;;12.90;9.98;;;29.30;99.90;;;;;;6172967;23;20182;-73
2021/06/17 06:05:21;;;;;;;10.30;8.48;;;29.60;99.90;;;;;;6172953;23;20619;-80
2021/06/17 06:07:57;;;;;;;9.60;8.57;;;29.90;99.90;;;;;;6172606;23;20241;-80
2021/06/17 06:10:24;;;;;;;10.93;9.80;;;30.10;99.90;;;;;;6172242;23;20951;-74
2021/06/17 06:12:52;;;;;;;9.38;8.23;;;30.40;99.90;;;;;;6173255;23;20179;-75
2021/06/17 06:15:19;;;;;;;12.57;9.57;;;30.50;99.90;;;;;;6172306;23;20174;-76
2021/06/17 06:17:46;;;;;;;10.27;8.25;;;30.70;99.90;;;;;;6173170;23;20183;-75
2021/06/17 06:20:13;;;;;;;11.50;8.70;;;30.80;99.90;;;;;;6172414;23;20467;-77
2021/06/17 06:22:41;;;;;;;12.95;7.78;;;31.00;99.90;;;;;;6172548;23;20179;-80
2021/06/17 06:25:09;;;;;;;9.20;8.30;;;31.10;99.90;;;;;;6172914;23;20209;-76
2021/06/17 06:27:36;;;;;;;9.77;6.90;;;31.20;99.90;;;;;;6172220;23;20198;-76
2021/06/17 06:30:05;;;;;;;9.98;7.65;;;31.20;99.90;;;;;;6172385;23;20207;-74
2021/06/17 06:32:32;;;;;;;9.38;7.32;;;31.00;99.90;;;;;;6172835;23;20175;-74
2021/06/17 06:34:59;;;;;;;9.23;7.45;;;30.70;99.90;;;;;;6172282;23;20607;-74
2021/06/17 06:37:26;;;;;;;9.07;7.70;;;30.50;99.90;;;;;;6171845;23;20186;-80
2021/06/17 06:39:53;;;;;;;7.80;7.10;;;29.90;99.90;;;;;;6172490;23;20194;-73
2021/06/17 06:42:20;;;;;;;9.90;6.40;;;29.50;99.90;;;;;;6172448;23;20171;-75
2021/06/17 06:44:47;;;;;;;6.68;5.90;;;29.20;99.90;;;;;;6172601;23;20567;-74
2021/06/17 06:47:15;;;;;;;9.02;6.57;;;28.90;99.90;;;;;;6172296;23;20177;-74
2021/06/17 06:49:42;;;;;;;7.05;6.32;;;28.60;99.90;;;;;;6171932;23;20190;-76
2021/06/17 06:52:09;;;;;;;7.57;6.05;;;28.40;99.90;;;;;;6171564;23;20606;-74
2021/06/17 06:54:35;;;;;;;8.60;6.88;;;27.90;99.90;;;;;;6135552;23;20175;-74
2021/06/17 06:57:02;;;;;;;6.78;6.18;;;27.60;99.90;;;;;;6170918;23;20175;-74
2021/06/17 06:59:29;;;;;;;8.82;6.80;;;27.40;99.90;;;;;;6172443;23;20202;-74
2021/06/17 07:01:57;;;;;;;8.32;7.43;;;27.20;99.90;;;;;;6172271;23;20616;-79
2021/06/17 07:04:25;;;;;;;13.50;7.80;;;27.20;99.90;;;;;;6170891;23;20232;-74
2021/06/17 07:06:53;;;;;;;12.68;8.60;;;27.00;99.90;;;;;;6172186;23;20229;-75
2021/06/17 07:09:19;;;;;;;13.13;7.95;;;26.90;99.90;;;;;;6172547;23;20163;-74
2021/06/17 07:11:47;;;;;;;11.65;8.73;;;26.80;99.90;;;;;;6163675;23;20178;-76
2021/06/17 07:14:14;;;;;;;9.77;7.80;;;27.10;99.90;;;;;;6171477;23;20540;-77
2021/06/17 07:16:41;;;;;;;10.45;8.02;;;27.30;99.90;;;;;;6172529;23;20229;-78
2021/06/17 07:19:08;;;;;;;8.52;6.53;;;27.70;99.90;;;;;;6171578;23;20777;-76
2021/06/17 07:21:36;;;;;;;7.35;5.72;;;28.20;99.90;;;;;;6172994;23;20175;-75
2021/06/17 07:24:04;;;;;;;9.82;6.00;;;28.70;99.90;;;;;;6172758;23;20181;-79
2021/06/17 07:26:31;;;;;;;8.90;5.75;;;29.30;99.90;;;;;;6172397;23;20179;-76
2021/06/17 07:29:00;;;;;;;7.63;5.10;;;29.80;99.90;;;;;;6172078;23;20539;-76
2021/06/17 07:31:27;;;;;;;7.13;4.90;;;30.10;99.90;;;;;;6172274;23;20170;-78
2021/06/17 07:33:54;;;;;;;7.07;5.53;;;30.40;99.90;;;;;;6171920;23;20185;-75
2021/06/17 07:36:20;;;;;;;21.17;6.28;;;30.50;99.90;;;;;;6172724;23;20185;-77
2021/06/17 07:38:50;;;;;;;19.75;5.57;;;30.70;99.90;;;;;;6172288;23;20202;-73
2021/06/17 07:41:17;;;;;;;16.88;5.55;;;30.80;99.90;;;;;;6174725;23;20442;-73
2021/06/17 07:43:44;;;;;;;15.82;4.85;;;30.70;99.90;;;;;;6175099;23;20178;-73
2021/06/17 07:46:10;;;;;;;12.75;5.60;;;30.90;99.90;;;;;;6174689;23;20178;-74
2021/06/17 07:48:39;;;;;;;11.98;4.93;;;31.00;99.90;;;;;;6175108;23;20182;-75
2021/06/17 07:51:07;;;;;;;14.27;5.07;;;31.30;99.90;;;;;;6174956;23;20170;-73
2021/06/17 07:53:34;;;;;;;7.95;4.93;;;31.20;99.90;;;;;;6172703;23;20190;-79
2021/06/17 07:56:03;;;;;;;6.32;3.90;;;31.30;99.90;;;;;;6175007;23;20686;-75
2021/06/17 07:58:29;;;;;;;14.43;6.18;;;31.40;99.90;;;;;;6174678;23;20175;-76
2021/06/17 08:00:56;;;;;;;10.05;5.28;;;31.40;99.90;;;;;;6173890;23;20182;-78
2021/06/17 08:03:23;;;;;;;6.85;4.72;;;31.60;99.90;;;;;;6173336;23;20194;-74
2021/06/17 08:05:50;;;;;;;5.28;4.78;;;31.60;99.90;;;;;;6173698;23;20205;-76
2021/06/17 08:08:17;;;;;;;6.53;5.00;;;31.80;99.90;;;;;;6172973;23;20202;-80
2021/06/17 08:10:44;;;;;;;7.78;5.40;;;31.90;99.90;;;;;;6174726;23;20166;-74
2021/06/17 08:13:12;;;;;;;8.57;5.15;;;31.90;99.90;;;;;;6174606;23;20178;-73
2021/06/17 08:15:39;;;;;;;6.60;5.65;;;31.90;99.90;;;;;;6174483;23;20167;-78
2021/06/17 08:18:07;;;;;;;10.48;5.13;;;31.80;99.90;;;;;;6174344;23;20178;-80
2021/06/17 08:20:34;;;;;;;8.32;6.10;;;31.40;99.90;;;;;;6172387;23;20756;-79
2021/06/17 08:23:00;;;;;;;7.00;5.25;;;31.40;99.90;;;;;;6172878;23;20179;-81
2021/06/17 08:25:27;;;;;;;12.20;6.18;;;31.50;99.90;;;;;;6173218;23;20769;-78
2021/06/17 08:27:56;;;;;;;7.80;5.22;;;31.70;99.90;;;;;;6171973;23;20171;-80
2021/06/17 08:30:24;;;;;;;8.73;5.38;;;32.00;99.90;;;;;;6174110;23;20202;-74
2021/06/17 08:32:51;;;;;;;9.40;5.53;;;32.30;99.90;;;;;;6173973;23;20174;-73
2021/06/17 08:35:18;;;;;;;7.20;5.07;;;32.60;99.90;;;;;;6172987;23;20182;-74
2021/06/17 08:37:45;;;;;;;6.05;5.45;;;32.50;99.90;;;;;;6173579;23;20183;-74
2021/06/17 08:40:12;;;;;;;10.25;6.22;;;32.40;99.90;;;;;;6173158;23;20205;-72
2021/06/17 08:42:39;;;;;;;5.38;4.75;;;32.00;99.90;;;;;;6173371;23;20245;-74
2021/06/17 08:45:10;;;;;;;6.00;5.03;;;31.60;99.90;;;;;;6172959;23;20174;-73
2021/06/17 08:47:38;;;;;;;5.53;4.90;;;31.20;99.90;;;;;;6174294;23;20273;-74
2021/06/17 08:50:07;;;;;;;6.95;5.93;;;31.00;99.90;;;;;;6172974;23;20174;-73
2021/06/17 08:52:36;;;;;;;8.10;5.68;;;30.70;99.90;;;;;;6173516;23;20444;-73
2021/06/17 08:55:15;;;;;;;7.00;5.40;;;30.50;99.90;;;;;;6174265;23;20179;-74
2021/06/17 08:57:42;;;;;;;8.85;5.97;;;30.30;99.90;;;;;;6172453;23;20167;-76
2021/06/17 09:00:29;;;;;;;9.27;5.28;;;30.00;99.90;;;;;;6173779;23;20191;-77
2021/06/17 09:03:00;;;;;;;8.38;4.43;;;30.00;99.90;;;;;;6173521;23;20225;-76
2021/06/17 09:05:27;;;;;;;9.25;6.10;;;29.80;99.90;;;;;;6174269;23;20237;-75
2021/06/17 09:07:54;;;;;;;9.00;6.00;;;29.60;99.90;;;;;;6173594;23;20167;-80
2021/06/17 09:10:22;;;;;;;6.28;4.68;;;29.50;99.90;;;;;;6173237;23;20171;-75
2021/06/17 09:12:50;;;;;;;7.63;5.03;;;29.40;99.90;;;;;;6173739;23;20185;-75
2021/06/17 09:15:28;;;;;;;10.75;5.50;;;29.30;99.90;;;;;;6173969;23;20202;-78
2021/06/17 09:18:14;;;;;;;8.77;5.20;;;29.10;99.90;;;;;;6173163;23;20170;-78
2021/06/17 09:20:45;;;;;;;8.80;5.55;;;29.00;99.90;;;;;;6174693;23;20214;-76
2021/06/17 09:23:31;;;;;;;6.22;4.80;;;28.90;99.90;;;;;;6174058;23;20167;-77
2021/06/17 09:26:01;;;;;;;6.00;4.70;;;28.90;99.90;;;;;;6173943;23;20174;-74
2021/06/17 09:28:43;;;;;;;5.28;4.43;;;28.70;99.90;;;;;;6173045;23;20205;-76
2021/06/17 09:31:14;;;;;;;5.63;4.18;;;28.40;99.90;;;;;;6173109;23;20173;-74
2021/06/17 09:33:43;;;;;;;5.60;4.05;;;28.40;99.90;;;;;;6173902;23;20440;-75
2021/06/17 09:36:10;;;;;;;4.28;3.40;;;28.30;99.90;;;;;;6173010;23;20186;-77
2021/06/17 09:38:45;;;;;;;5.43;3.47;;;28.20;99.90;;;;;;6173142;23;20646;-79
2021/06/17 09:41:28;;;;;;;4.03;3.63;;;28.40;99.90;;;;;;6173672;23;20194;-79
2021/06/17 09:43:55;;;;;;;4.57;3.58;;;28.50;99.90;;;;;;6173754;23;20171;-76
2021/06/17 09:46:22;;;;;;;5.07;3.53;;;28.50;99.90;;;;;;6170136;23;20178;-77
2021/06/17 09:48:50;;;;;;;3.63;3.33;;;28.50;99.90;;;;;;6174101;23;20182;-86
2021/06/17 09:51:33;;;;;;;5.10;3.78;;;28.60;99.90;;;;;;6172855;23;20583;-75
2021/06/17 09:54:14;;;;;;;3.85;2.95;;;28.50;99.90;;;;;;6171601;23;20174;-78
2021/06/17 09:56:42;;;;;;;4.38;3.03;;;28.50;99.90;;;;;;6173888;23;20173;-83
2021/06/17 09:59:10;;;;;;;3.53;3.00;;;28.40;99.90;;;;;;6174706;23;20185;-79
2021/06/17 10:01:41;;;;;;;4.40;3.63;;;28.40;99.90;;;;;;6172925;23;20179;-74
2021/06/17 10:04:11;;;;;;;5.20;3.58;;;28.40;99.90;;;;;;6170903;23;20167;-75
2021/06/17 10:06:39;;;;;;;3.78;3.38;;;28.30;99.90;;;;;;6172467;23;20183;-75
2021/06/17 10:09:08;;;;;;;3.83;3.22;;;28.30;99.90;;;;;;6172444;23;20194;-79
2021/06/17 10:11:35;;;;;;;3.38;2.97;;;28.30;99.90;;;;;;6172289;23;20186;-76
2021/06/17 10:14:03;;;;;;;4.35;3.95;;;28.50;99.90;;;;;;6171808;23;20183;-76
2021/06/17 10:16:31;;;;;;;5.65;3.63;;;28.60;99.90;;;;;;6173819;23;20187;-80
2021/06/17 10:18:58;;;;;;;4.63;4.13;;;28.80;99.90;;;;;;6172977;23;20252;-80
2021/06/17 10:21:26;;;;;;;7.18;4.53;;;28.80;99.90;;;;;;6170954;23;20205;-77
2021/06/17 10:23:54;;;;;;;5.50;4.13;;;28.80;99.90;;;;;;6172246;23;20190;-76
2021/06/17 10:26:25;;;;;;;5.63;3.60;;;29.00;99.90;;;;;;6172420;23;20469;-79
2021/06/17 10:28:54;;;;;;;7.53;4.82;;;29.20;99.90;;;;;;6171935;23;20237;-77
2021/06/17 10:31:47;;;;;;;4.78;3.72;;;29.40;99.90;;;;;;6172035;23;20183;-80
2021/06/17 10:34:38;;;;;;;6.25;4.07;;;29.60;99.90;;;;;;6171908;23;20573;-78
2021/06/17 10:37:14;;;;;;;5.80;4.03;;;29.90;99.90;;;;;;6172330;23;20588;-74
2021/06/17 10:39:43;;;;;;;5.03;3.88;;;30.30;99.90;;;;;;6172396;23;20209;-78
2021/06/17 10:42:34;;;;;;;4.85;3.67;;;30.80;99.90;;;;;;6172042;23;20182;-78
2021/06/17 10:45:04;;;;;;;5.65;3.45;;;31.30;99.90;;;;;;6171140;23;20178;-76
2021/06/17 10:48:04;;;;;;;4.60;4.03;;;31.60;99.90;;;;;;6172656;23;20229;-75
2021/06/17 10:50:52;;;;;;;5.22;3.33;;;31.80;99.90;;;;;;6171907;23;20173;-75
2021/06/17 10:53:43;;;;;;;6.13;3.30;;;31.90;99.90;;;;;;6172892;23;20167;-77
2021/06/17 10:56:16;;;;;;;5.90;4.03;;;32.00;99.90;;;;;;6170692;23;20649;-81
2021/06/17 10:59:04;;;;;;;8.00;3.78;;;32.10;99.90;;;;;;6172655;23;20175;-82
2021/06/17 11:01:45;;;;;;;6.22;3.33;;;32.20;99.90;;;;;;6172372;23;20190;-76
2021/06/17 11:04:23;;;;;;;4.15;3.50;;;32.30;99.90;;;;;;6172598;23;20174;-79
2021/06/17 11:07:17;;;;;;;4.53;3.30;;;32.10;99.90;;;;;;6172683;23;20619;-78
2021/06/17 11:09:57;;;;;;;6.57;4.20;;;32.10;99.90;;;;;;6172169;23;20163;-78
2021/06/17 11:12:54;;;;;;;5.65;3.35;;;32.10;99.90;;;;;;6171971;23;20186;-76
2021/06/17 11:15:48;;;;;;;3.60;3.30;;;32.40;99.90;;;;;;6172563;23;20205;-79
2021/06/17 11:18:16;;;;;;;6.53;3.78;;;32.70;99.90;;;;;;6105017;23;20182;-76
2021/06/17 11:20:47;;;;;;;4.68;3.70;;;32.50;99.90;;;;;;6174602;23;20205;-75
2021/06/17 11:23:18;;;;;;;4.00;3.60;;;32.50;99.90;;;;;;6173165;23;21096;-81
2021/06/17 11:25:46;;;;;;;6.82;3.53;;;32.40;99.90;;;;;;6173626;23;20434;-80
2021/06/17 11:28:15;;;;;;;4.78;4.10;;;32.10;99.90;;;;;;6174007;23;20467;-85
2021/06/17 11:31:01;;;;;;;4.93;3.38;;;31.90;99.90;;;;;;6174061;23;20533;-77
2021/06/17 11:33:49;;;;;;;7.03;3.22;;;32.10;99.90;;;;;;6172855;23;20187;-80
2021/06/17 11:36:20;;;;;;;5.47;3.13;;;32.20;99.90;;;;;;6172530;23;20189;-75
2021/06/17 11:38:52;;;;;;;3.53;3.22;;;32.40;99.90;;;;;;6171032;23;20643;-76
2021/06/17 11:41:22;;;;;;;6.03;3.05;;;32.60;99.90;;;;;;6172815;23;20583;-75
2021/06/17 11:44:01;;;;;;;5.40;2.90;;;32.90;99.90;;;;;;6173055;23;20190;-75
2021/06/17 11:46:38;;;;;;;5.20;3.42;;;33.20;99.90;;;;;;6170818;23;20519;-75
2021/06/17 11:49:06;;;;;;;4.07;3.00;;;33.50;99.90;;;;;;6171955;23;20233;-75
2021/06/17 11:51:53;;;;;;;4.22;3.13;;;33.80;99.90;;;;;;6171513;23;20647;-76
2021/06/17 11:54:23;;;;;;;4.32;2.78;;;33.80;99.90;;;;;;6171774;23;20584;-75
2021/06/17 11:56:54;;;;;;;3.88;2.67;;;33.70;99.90;;;;;;6172479;23;20269;-75
2021/06/17 11:59:25;;;;;;;4.00;2.72;;;33.50;99.90;;;;;;6171335;23;20182;-74
2021/06/17 12:02:09;;;;;;;6.80;3.00;;;33.30;99.90;;;;;;6171354;23;20933;-72
2021/06/17 12:04:49;;;;;;;10.88;3.92;;;33.10;99.90;;;;;;6171653;23;20387;-74
2021/06/17 12:07:16;;;;;;;9.98;4.03;;;33.20;99.90;;;;;;6171950;23;20183;-79
2021/06/17 12:09:45;;;;;;;7.20;4.07;;;33.40;99.90;;;;;;6173114;23;20222;-79
2021/06/17 12:12:18;;;;;;;11.88;4.90;;;33.50;99.90;;;;;;6171683;23;20182;-74
2021/06/17 12:14:46;;;;;;;9.70;4.72;;;33.70;99.90;;;;;;6170739;23;20183;-75
2021/06/17 12:17:25;;;;;;;12.88;5.10;;;33.70;99.90;;;;;;6171762;23;20546;-74
2021/06/17 12:19:54;;;;;;;5.35;3.05;;;33.70;99.90;;;;;;6171935;23;20186;-74
2021/06/17 12:22:21;;;;;;;6.43;3.10;;;33.70;99.90;;;;;;6172563;23;20187;-74
2021/06/17 12:24:48;;;;;;;5.50;3.58;;;33.70;99.90;;;;;;6173932;23;20182;-75
2021/06/17 12:27:18;;;;;;;4.70;3.40;;;33.60;99.90;;;;;;6172590;23;20179;-74
2021/06/17 12:29:45;;;;;;;5.78;3.70;;;33.70;99.90;;;;;;6173072;23;20249;-73
2021/06/17 12:32:12;;;;;;;7.72;3.63;;;33.70;99.90;;;;;;6174248;23;20246;-76
2021/06/17 12:34:42;;;;;;;8.30;4.20;;;33.80;99.90;;;;;;6173394;23;20186;-79
2021/06/17 12:37:10;;;;;;;6.80;3.63;;;33.90;99.90;;;;;;6174441;23;20246;-76
2021/06/17 12:39:39;;;;;;;10.30;4.18;;;34.00;99.90;;;;;;6173905;23;20269;-75
2021/06/17 12:42:11;;;;;;;9.60;4.82;;;34.00;99.90;;;;;;6173347;23;20314;-73
2021/06/17 12:44:41;;;;;;;9.68;3.88;;;33.50;99.90;;;;;;6173879;23;20182;-77
2021/06/17 12:47:14;;;;;;;9.00;4.45;;;33.20;99.90;;;;;;6174139;23;20456;-75
2021/06/17 12:52:30;;;;;;;8.77;4.85;;;32.50;99.90;;;;;;6174202;23;20185;-73
2021/06/17 12:54:57;;;;;;;10.23;5.45;;;32.20;99.90;;;;;;6174593;23;20193;-75
2021/06/17 12:57:27;;;;;;;8.75;5.22;;;32.00;99.90;;;;;;6173246;23;20182;-76
2021/06/17 12:59:59;;;;;;;8.10;5.65;;;31.90;99.90;;;;;;6173966;23;20183;-82